Time;durP1;ratioP1;P1;durP2;ratioP2;P2;SDS_P1;SDS_P2;PMS_P1;PMS_P2;Temp;Humidity;BMP_temperature;BMP_pressure;BME280_temperature;BME280_humidity;BME280_pressure;Samples;Min_cycle;Max_cycle;Signal;HPM_P1;HPM_P2
2023/09/07 00:01:08;;;;;;;8.23;4.80;;;20.40;99.90;;;;;;5112141;28;20124;-69
2023/09/07 00:03:34;;;;;;;5.75;4.68;;;22.20;99.90;;;;;;5093763;28;20464;-70
2023/09/07 00:06:00;;;;;;;9.00;4.90;;;21.50;99.90;;;;;;5093951;28;20122;-70
2023/09/07 00:08:25;;;;;;;7.82;5.30;;;22.40;99.90;;;;;;5093807;28;20082;-70
2023/09/07 00:10:51;;;;;;;6.45;5.13;;;21.10;99.90;;;;;;5093844;28;20172;-69
2023/09/07 00:13:17;;;;;;;8.90;5.50;;;21.80;99.90;;;;;;5093778;28;20050;-70
2023/09/07 00:15:43;;;;;;;12.98;5.38;;;;;;;;;;5094154;28;20044;-69
2023/09/07 00:18:09;;;;;;;11.18;6.00;;;22.40;99.90;;;;;;5094275;28;20040;-70
2023/09/07 00:20:35;;;;;;;8.75;5.45;;;;;;;;;;5093801;28;20499;-69
2023/09/07 00:23:01;;;;;;;11.05;5.32;;;22.20;99.90;;;;;;5060242;28;20039;-69
2023/09/07 00:25:27;;;;;;;8.13;6.05;;;21.40;99.90;;;;;;5093673;28;20298;-69
2023/09/07 00:27:53;;;;;;;7.90;5.15;;;21.90;99.90;;;;;;5093714;28;20054;-71
2023/09/07 00:30:19;;;;;;;8.30;5.72;;;21.90;99.90;;;;;;5093568;28;20043;-71
2023/09/07 00:32:45;;;;;;;7.57;5.43;;;;;;;;;;5054231;28;1120419;-71
2023/09/07 00:35:11;;;;;;;10.32;5.13;;;22.10;99.50;;;;;;5094948;28;20040;-71
2023/09/07 00:37:37;;;;;;;8.82;5.30;;;20.20;99.90;;;;;;5094575;28;20424;-71
2023/09/07 00:40:08;;;;;;;7.65;5.07;;;21.40;99.90;;;;;;5094789;28;20039;-70
2023/09/07 00:42:34;;;;;;;6.60;5.03;;;;;;;;;;5078898;28;20116;-71
2023/09/07 00:45:01;;;;;;;8.00;5.47;;;;;;;;;;5098268;28;20036;-71
2023/09/07 00:47:26;;;;;;;6.50;4.80;;;19.90;99.90;;;;;;5081167;28;20071;-70
2023/09/07 00:49:52;;;;;;;6.95;5.28;;;;;;;;;;5098023;28;20082;-71
2023/09/07 00:52:19;;;;;;;8.38;5.47;;;19.70;99.90;;;;;;5098091;28;20043;-71
2023/09/07 00:54:45;;;;;;;6.63;5.00;;;21.50;99.90;;;;;;5098062;28;20051;-71
2023/09/07 00:57:11;;;;;;;7.97;5.07;;;;;;;;;;5081397;28;20123;-70
2023/09/07 00:59:36;;;;;;;5.47;4.60;;;21.80;99.90;;;;;;5098508;28;20391;-71
2023/09/07 01:02:05;;;;;;;9.13;5.63;;;21.80;99.90;;;;;;5097657;28;20035;-71
2023/09/07 01:04:32;;;;;;;8.13;5.30;;;21.70;99.90;;;;;;5098033;28;20386;-71
2023/09/07 01:07:03;;;;;;;7.07;5.13;;;20.40;99.90;;;;;;5098020;28;20082;-71
2023/09/07 01:09:32;;;;;;;;;;;20.70;99.50;;;;;;5098118;28;20046;-71
2023/09/07 01:11:57;;;;;;;6.30;5.10;;;20.20;99.90;;;;;;5097624;28;19915;-71
2023/09/07 01:14:23;;;;;;;7.35;4.82;;;21.50;99.90;;;;;;5097418;28;20046;-71
2023/09/07 01:16:50;;;;;;;8.05;5.25;;;20.90;99.90;;;;;;5115853;28;20049;-77
2023/09/07 01:19:16;;;;;;;7.13;4.95;;;;;;;;;;5092544;28;20042;-76
2023/09/07 01:21:43;;;;;;;7.72;5.03;;;20.50;99.90;;;;;;5082768;28;20071;-76
2023/09/07 01:24:11;;;;;;;8.77;5.72;;;19.30;99.90;;;;;;5119229;28;20047;-76
2023/09/07 01:26:40;;;;;;;5.95;5.20;;;21.10;99.90;;;;;;5116784;28;20051;-76
2023/09/07 01:29:07;;;;;;;9.88;5.47;;;19.20;99.90;;;;;;5116547;28;20208;-76
2023/09/07 01:31:39;;;;;;;8.23;5.75;;;19.80;99.90;;;;;;5118510;28;20039;-76
2023/09/07 01:34:06;;;;;;;7.93;6.28;;;19.30;99.90;;;;;;5102698;28;20063;-77
2023/09/07 01:36:32;;;;;;;8.65;6.13;;;19.60;99.90;;;;;;5085993;28;20047;-77
2023/09/07 01:38:58;;;;;;;9.25;5.78;;;20.60;99.90;;;;;;5098157;28;20071;-76
2023/09/07 01:41:24;;;;;;;9.75;5.63;;;;;;;;;;5086514;28;20047;-77
2023/09/07 01:43:50;;;;;;;8.32;5.70;;;21.30;99.90;;;;;;5103889;28;20043;-77
2023/09/07 01:46:16;;;;;;;7.07;5.28;;;;;;;;;;5087719;28;20043;-77
2023/09/07 01:48:42;;;;;;;7.82;5.50;;;;;;;;;;5102133;28;20452;-70
2023/09/07 01:51:08;;;;;;;7.13;5.43;;;20.40;99.90;;;;;;5097978;28;20046;-70
2023/09/07 01:53:34;;;;;;;8.07;5.78;;;20.90;99.90;;;;;;5096526;28;20048;-70
2023/09/07 01:56:00;;;;;;;7.53;5.43;;;21.20;99.90;;;;;;5096627;28;20108;-71
2023/09/07 01:58:26;;;;;;;8.88;5.78;;;;;;;;;;5097043;28;20055;-70
2023/09/07 02:00:58;;;;;;;8.90;5.10;;;19.70;99.90;;;;;;5096653;28;20078;-71
2023/09/07 02:03:25;;;;;;;7.75;5.35;;;20.50;99.90;;;;;;5096576;28;20036;-77
2023/09/07 02:05:51;;;;;;;10.65;5.32;;;;;;;;;;5080088;28;20063;-77
2023/09/07 02:08:17;;;;;;;7.20;5.28;;;;;;;;;;5096431;28;20039;-77
2023/09/07 02:10:42;;;;;;;8.65;5.32;;;20.90;99.90;;;;;;5096396;28;20505;-77
2023/09/07 02:13:09;;;;;;;13.57;6.00;;;;;;;;;;5096277;28;20126;-77
2023/09/07 02:15:38;;;;;;;9.07;5.38;;;20.10;99.90;;;;;;5096492;28;20455;-77
2023/09/07 02:18:05;;;;;;;7.05;6.05;;;20.20;99.90;;;;;;5096465;28;20079;-76
2023/09/07 02:20:32;;;;;;;7.38;5.43;;;19.90;99.90;;;;;;5096244;28;20047;-76
2023/09/07 02:22:58;;;;;;;9.40;5.82;;;19.40;99.90;;;;;;5079450;28;20047;-77
2023/09/07 02:25:24;;;;;;;9.27;6.05;;;;;;;;;;5096212;28;20118;-77
2023/09/07 02:27:50;;;;;;;6.75;5.35;;;19.90;99.90;;;;;;5096432;28;20122;-77
2023/09/07 02:30:16;;;;;;;8.07;6.07;;;;;;;;;;5096099;28;20531;-77
2023/09/07 02:32:42;;;;;;;6.95;6.05;;;20.00;99.90;;;;;;5095961;28;20457;-76
2023/09/07 02:35:09;;;;;;;10.10;5.88;;;;;;;;;;5079157;28;20121;-77
2023/09/07 02:37:36;;;;;;;10.77;6.32;;;20.10;99.90;;;;;;5079255;28;20043;-77
2023/09/07 02:40:06;;;;;;;8.55;5.90;;;;;;;;;;5078949;28;20048;-77
2023/09/07 02:42:32;;;;;;;7.82;6.00;;;;;;;;;;5095820;28;20510;-77
2023/09/07 02:44:58;;;;;;;8.45;5.82;;;18.80;99.90;;;;;;5096106;28;20376;-77
2023/09/07 02:47:24;;;;;;;10.52;5.70;;;;;;;;;;5078916;28;20043;-77
2023/09/07 02:49:50;;;;;;;9.65;6.00;;;18.50;99.90;;;;;;5078748;28;20400;-77
2023/09/07 02:52:15;;;;;;;7.55;6.20;;;20.50;99.90;;;;;;5095686;28;20104;-77
2023/09/07 02:54:41;;;;;;;9.05;6.30;;;18.40;99.90;;;;;;5095979;28;20039;-77
2023/09/07 02:57:07;;;;;;;11.15;6.30;;;20.40;99.90;;;;;;5079104;28;20391;-77
2023/09/07 02:59:33;;;;;;;9.75;6.15;;;;;;;;;;5062276;28;20039;-77
2023/09/07 03:01:59;;;;;;;7.93;6.10;;;18.40;99.90;;;;;;5095677;28;20077;-77
2023/09/07 03:04:25;;;;;;;7.82;6.00;;;;;;;;;;5078954;28;20493;-77
2023/09/07 03:06:51;;;;;;;9.13;6.00;;;19.20;99.90;;;;;;5095223;28;20411;-77
2023/09/07 03:09:17;;;;;;;9.38;5.82;;;18.10;99.90;;;;;;5062324;28;20047;-76
2023/09/07 03:11:42;;;;;;;7.82;5.53;;;18.20;99.90;;;;;;5095674;28;20501;-76
2023/09/07 03:14:08;;;;;;;8.93;7.28;;;;;;;;;;5078629;28;20503;-70
2023/09/07 03:16:34;;;;;;;8.98;6.10;;;18.10;99.90;;;;;;5095604;28;20428;-70
2023/09/07 03:19:00;;;;;;;8.68;6.32;;;;;;;;;;5061916;28;20047;-70
2023/09/07 03:21:29;;;;;;;11.60;6.47;;;;;;;;;;5078420;28;20040;-71
2023/09/07 03:23:56;;;;;;;8.85;6.03;;;18.90;99.90;;;;;;5095580;28;20044;-70
2023/09/07 03:26:21;;;;;;;9.43;6.75;;;17.90;99.90;;;;;;5095145;28;20400;-76
2023/09/07 03:28:48;;;;;;;12.05;6.50;;;;;;;;;;5095139;28;20032;-76
2023/09/07 03:31:14;;;;;;;9.10;6.43;;;;;;;;;;5078411;28;20615;-76
2023/09/07 03:33:40;;;;;;;8.88;6.32;;;;;;;;;;5095163;28;20078;-76
2023/09/07 03:36:05;;;;;;;11.00;6.75;;;20.10;99.90;;;;;;5078557;28;20051;-76
2023/09/07 03:38:31;;;;;;;13.68;6.72;;;;;;;;;;5095422;28;20449;-76
2023/09/07 03:40:58;;;;;;;9.52;6.43;;;;;;;;;;5094937;28;20036;-76
2023/09/07 03:43:23;;;;;;;10.80;6.50;;;19.20;99.90;;;;;;5095202;28;20502;-76
2023/09/07 03:45:49;;;;;;;12.73;6.82;;;;;;;;;;5094940;28;20113;-76
2023/09/07 03:48:15;;;;;;;8.18;6.78;;;;;;;;;;5095073;28;20043;-77
2023/09/07 03:50:41;;;;;;;7.30;6.38;;;19.50;99.90;;;;;;5095071;28;20036;-77
2023/09/07 03:53:07;;;;;;;8.48;6.78;;;;;;;;;;5061825;28;20039;-77
2023/09/07 03:55:44;;;;;;;7.90;6.10;;;17.70;99.90;;;;;;5094941;28;20131;-70
2023/09/07 03:58:10;;;;;;;8.68;6.78;;;18.60;99.90;;;;;;5094895;28;20043;-70
2023/09/07 04:00:40;;;;;;;11.20;7.50;;;19.00;99.90;;;;;;5094936;28;20451;-70
2023/09/07 04:03:09;;;;;;;13.02;6.82;;;18.90;99.90;;;;;;5094851;28;20043;-69
2023/09/07 04:05:38;;;;;;;13.10;6.82;;;19.50;99.90;;;;;;5094968;28;20476;-70
2023/09/07 04:08:04;;;;;;;8.30;6.57;;;;;;;;;;5078312;28;20054;-70
2023/09/07 04:10:30;;;;;;;9.57;6.88;;;19.40;99.90;;;;;;5095126;28;20048;-70
2023/09/07 04:12:56;;;;;;;9.75;6.55;;;19.60;99.90;;;;;;5094771;28;20050;-70
2023/09/07 04:15:22;;;;;;;12.85;6.97;;;;;;;;;;5078358;28;20048;-70
2023/09/07 04:17:49;;;;;;;10.57;6.93;;;18.10;99.90;;;;;;5096568;28;20055;-69
2023/09/07 04:20:15;;;;;;;12.15;6.90;;;18.00;99.90;;;;;;5098750;28;20042;-70
2023/09/07 04:22:41;;;;;;;9.80;7.30;;;;;;;;;;5098652;28;20131;-70
2023/09/07 04:25:07;;;;;;;10.70;6.47;;;19.50;99.90;;;;;;5098700;28;20043;-70
2023/09/07 04:27:33;;;;;;;11.25;7.13;;;18.80;99.90;;;;;;5098574;28;20040;-70
2023/09/07 04:29:58;;;;;;;10.45;7.07;;;19.60;99.90;;;;;;5116694;28;20119;-70
2023/09/07 04:32:24;;;;;;;9.75;7.43;;;19.60;99.90;;;;;;5081417;28;20180;-70
2023/09/07 04:34:56;;;;;;;11.02;7.00;;;18.00;99.90;;;;;;5098369;28;20054;-70
2023/09/07 04:37:23;;;;;;;12.00;7.85;;;18.40;99.90;;;;;;5098681;28;20040;-70
2023/09/07 04:39:53;;;;;;;8.60;7.13;;;18.30;99.90;;;;;;5081485;28;20492;-70
2023/09/07 04:42:19;;;;;;;8.60;7.47;;;18.80;99.90;;;;;;5098482;28;20156;-70
2023/09/07 04:44:49;;;;;;;12.20;7.25;;;18.50;99.90;;;;;;5098148;28;20079;-69
2023/09/07 04:47:17;;;;;;;12.00;8.10;;;18.40;99.90;;;;;;5098125;28;20044;-69
2023/09/07 04:49:49;;;;;;;11.68;8.35;;;17.70;99.90;;;;;;5098171;28;20036;-69
2023/09/07 04:52:15;;;;;;;9.63;7.57;;;19.10;99.90;;;;;;5099057;28;20487;-70
2023/09/07 04:54:41;;;;;;;10.93;8.02;;;19.00;99.90;;;;;;5131274;28;20063;-69
2023/09/07 04:57:07;;;;;;;13.65;8.43;;;;;;;;;;5121375;28;20099;-69
2023/09/07 04:59:33;;;;;;;11.25;7.82;;;;;;;;;;5121567;28;20039;-70
2023/09/07 05:02:02;;;;;;;9.55;7.50;;;18.80;99.90;;;;;;5102680;28;20042;-70
2023/09/07 05:04:28;;;;;;;9.32;7.97;;;19.40;99.90;;;;;;5120015;28;20030;-70
2023/09/07 05:06:55;;;;;;;13.73;7.35;;;;;;;;;;5103122;28;20032;-71
2023/09/07 05:09:20;;;;;;;11.95;8.05;;;17.10;99.90;;;;;;5102772;28;20048;-70
2023/09/07 05:11:46;;;;;;;13.07;8.35;;;19.20;99.90;;;;;;5103439;28;20066;-70
2023/09/07 05:14:12;;;;;;;10.48;7.72;;;;;;;;;;5101898;28;20054;-71
2023/09/07 05:16:38;;;;;;;10.52;7.85;;;;;;;;;;5103931;28;20093;-70
2023/09/07 05:19:04;;;;;;;10.35;7.28;;;18.30;99.90;;;;;;5098514;28;20036;-70
2023/09/07 05:21:30;;;;;;;15.25;8.55;;;18.70;99.90;;;;;;5081537;28;20051;-70
2023/09/07 05:23:56;;;;;;;15.38;8.30;;;;;;;;;;5097671;28;20050;-70
2023/09/07 05:26:23;;;;;;;10.60;7.88;;;17.20;99.90;;;;;;5097382;28;20119;-70
2023/09/07 05:28:49;;;;;;;13.15;8.57;;;19.10;99.90;;;;;;5097504;28;20119;-70
2023/09/07 05:31:15;;;;;;;12.30;8.60;;;;;;;;;;5080489;28;20415;-70
2023/09/07 05:33:41;;;;;;;16.70;9.40;;;18.60;99.90;;;;;;5097340;28;20083;-70
2023/09/07 05:36:07;;;;;;;12.43;9.20;;;;;;;;;;5097045;28;20067;-70
2023/09/07 05:38:33;;;;;;;11.40;8.10;;;;;;;;;;5097436;28;20069;-76
2023/09/07 05:41:00;;;;;;;9.68;8.02;;;18.50;99.90;;;;;;5063885;28;20039;-76
2023/09/07 05:43:26;;;;;;;12.82;8.65;;;;;;;;;;5097214;28;20039;-77
2023/09/07 05:45:52;;;;;;;11.05;7.85;;;;;;;;;;5080585;28;20062;-76
2023/09/07 05:48:19;;;;;;;12.77;8.10;;;19.30;99.90;;;;;;5096969;28;20047;-77
2023/09/07 05:50:45;;;;;;;11.00;7.90;;;;;;;;;;5097337;28;20130;-76
2023/09/07 05:53:11;;;;;;;14.07;8.23;;;18.60;99.90;;;;;;5097003;28;20043;-77
2023/09/07 05:55:36;;;;;;;12.32;8.55;;;17.00;99.90;;;;;;5097083;28;20097;-76
2023/09/07 05:58:07;;;;;;;11.00;8.00;;;18.20;99.90;;;;;;5079986;28;20040;-76
2023/09/07 06:00:34;;;;;;;16.33;8.90;;;19.30;99.90;;;;;;5096986;28;20047;-77
2023/09/07 06:03:00;;;;;;;12.48;8.55;;;18.20;99.90;;;;;;5096734;28;20047;-76
2023/09/07 06:05:26;;;;;;;13.25;8.45;;;19.40;99.90;;;;;;5096988;28;20127;-77
2023/09/07 06:07:52;;;;;;;10.52;8.85;;;18.20;99.90;;;;;;5080281;28;20118;-77
2023/09/07 06:10:19;;;;;;;13.77;8.75;;;;;;;;;;5096815;28;20044;-76
2023/09/07 06:12:45;;;;;;;13.65;9.15;;;19.30;99.90;;;;;;5096947;28;20369;-77
2023/09/07 06:15:11;;;;;;;10.48;8.50;;;18.90;99.90;;;;;;5063370;28;20044;-76
2023/09/07 06:17:37;;;;;;;14.88;8.60;;;;;;;;;;5096715;28;20053;-71
2023/09/07 06:20:03;;;;;;;15.30;9.00;;;18.30;99.90;;;;;;5096723;28;20553;-77
2023/09/07 06:22:29;;;;;;;10.02;7.88;;;;;;;;;;5096511;28;20391;-77
2023/09/07 06:24:55;;;;;;;13.95;8.90;;;17.40;99.90;;;;;;5079737;28;20043;-71
2023/09/07 06:27:21;;;;;;;16.48;9.02;;;;;;;;;;5096309;28;20042;-70
2023/09/07 06:29:47;;;;;;;13.23;7.97;;;18.90;99.90;;;;;;5096304;28;20487;-71
2023/09/07 06:32:13;;;;;;;13.63;8.40;;;;;;;;;;5062643;28;20039;-71
2023/09/07 06:34:39;;;;;;;13.68;9.00;;;17.70;99.90;;;;;;5079377;28;20051;-70
2023/09/07 06:37:05;;;;;;;13.38;9.77;;;;;;;;;;5096085;28;20047;-71
2023/09/07 06:39:31;;;;;;;13.23;8.93;;;18.10;99.90;;;;;;5096048;28;20065;-71
2023/09/07 06:41:57;;;;;;;14.48;9.35;;;;;;;;;;5095841;28;20044;-71
2023/09/07 06:44:23;;;;;;;15.60;9.38;;;;;;;;;;5095929;28;20451;-71
2023/09/07 06:46:49;;;;;;;11.45;8.13;;;17.90;99.90;;;;;;5096106;28;20165;-71
2023/09/07 06:49:15;;;;;;;12.68;8.77;;;;;;;;;;5096236;28;20118;-71
2023/09/07 06:51:41;;;;;;;13.63;9.27;;;18.60;99.90;;;;;;5096036;28;20043;-71
2023/09/07 06:54:06;;;;;;;13.75;8.93;;;20.00;99.90;;;;;;5095952;28;20036;-70
2023/09/07 06:56:34;;;;;;;14.77;9.45;;;18.00;99.90;;;;;;5062781;28;20035;-71
2023/09/07 06:59:00;;;;;;;16.98;8.60;;;19.80;99.90;;;;;;5079204;28;20055;-70
2023/09/07 07:01:26;;;;;;;14.80;9.65;;;;;;;;;;5095795;28;20054;-70
2023/09/07 07:03:53;;;;;;;16.83;9.68;;;;;;;;;;5113996;28;20085;-70
2023/09/07 07:06:19;;;;;;;13.93;9.13;;;20.10;99.90;;;;;;5095632;28;20039;-70
2023/09/07 07:08:45;;;;;;;13.85;8.98;;;19.70;99.90;;;;;;5095990;28;20039;-70
2023/09/07 07:11:11;;;;;;;15.75;9.50;;;20.00;99.90;;;;;;5079118;28;20449;-71
2023/09/07 07:13:37;;;;;;;11.85;8.10;;;;;;;;;;5095997;28;20552;-70
2023/09/07 07:16:04;;;;;;;16.73;9.40;;;19.50;99.90;;;;;;5096051;28;20032;-71
2023/09/07 07:18:30;;;;;;;14.02;10.50;;;18.70;99.90;;;;;;5079209;28;20079;-69
2023/09/07 07:20:56;;;;;;;16.75;10.10;;;;;;;;;;5078956;28;20436;-70
2023/09/07 07:23:22;;;;;;;17.98;10.05;;;18.80;99.90;;;;;;5096008;28;20070;-76
2023/09/07 07:25:48;;;;;;;13.85;9.77;;;18.80;99.90;;;;;;5114579;28;20075;-77
2023/09/07 07:28:14;;;;;;;17.67;9.80;;;;;;;;;;5095574;28;20035;-76
2023/09/07 07:30:40;;;;;;;14.63;9.93;;;18.70;99.90;;;;;;5096248;28;20039;-70
2023/09/07 07:33:06;;;;;;;15.88;9.20;;;19.80;99.90;;;;;;5095795;28;20051;-69
2023/09/07 07:35:36;;;;;;;11.43;8.85;;;20.00;99.90;;;;;;5078975;28;20502;-70
2023/09/07 07:38:07;;;;;;;12.25;9.13;;;20.80;99.90;;;;;;5079159;28;20126;-70
2023/09/07 07:40:33;;;;;;;14.87;8.90;;;20.80;99.90;;;;;;5095890;28;20039;-69
2023/09/07 07:42:59;;;;;;;14.55;8.93;;;;;;;;;;5095585;28;20119;-76
2023/09/07 07:45:25;;;;;;;10.98;8.88;;;20.80;99.90;;;;;;5095627;28;20081;-76
2023/09/07 07:47:52;;;;;;;12.30;9.27;;;21.00;99.90;;;;;;5078963;28;20039;-76
2023/09/07 07:50:18;;;;;;;16.80;9.10;;;20.40;99.90;;;;;;5095551;28;20115;-76
2023/09/07 07:52:44;;;;;;;13.05;8.80;;;20.70;99.90;;;;;;5080857;28;20128;-77
2023/09/07 07:55:10;;;;;;;14.32;8.75;;;19.40;99.90;;;;;;5082823;28;20135;-76
2023/09/07 07:57:36;;;;;;;12.38;8.10;;;;;;;;;;5100177;28;20043;-77
2023/09/07 08:00:04;;;;;;;12.38;9.13;;;20.00;99.90;;;;;;5100003;28;20046;-77
2023/09/07 08:02:30;;;;;;;12.98;8.57;;;20.00;99.90;;;;;;5118017;28;20043;-77
2023/09/07 08:04:57;;;;;;;13.88;8.48;;;20.40;99.90;;;;;;5099692;28;20035;-76
2023/09/07 08:07:22;;;;;;;13.18;9.10;;;21.00;99.90;;;;;;5099784;28;20047;-77
2023/09/07 08:09:48;;;;;;;12.65;8.18;;;21.50;99.90;;;;;;5099611;28;20044;-77
2023/09/07 08:12:14;;;;;;;15.55;9.02;;;20.80;99.90;;;;;;5099265;28;20048;-76
2023/09/07 08:14:39;;;;;;;14.80;9.45;;;21.50;99.90;;;;;;5084420;28;20036;-77
2023/09/07 08:17:05;;;;;;;14.48;8.38;;;21.00;99.90;;;;;;5100838;28;20051;-77
2023/09/07 08:19:32;;;;;;;10.27;8.32;;;20.10;99.90;;;;;;5099188;28;20035;-77
2023/09/07 08:21:58;;;;;;;12.13;8.23;;;21.20;99.90;;;;;;5082606;28;20044;-77
2023/09/07 08:24:24;;;;;;;13.60;8.60;;;21.70;99.90;;;;;;5082426;28;20040;-77
2023/09/07 08:26:51;;;;;;;12.38;7.95;;;;;;;;;;5082661;28;20043;-77
2023/09/07 08:29:17;;;;;;;14.57;8.35;;;21.10;99.90;;;;;;5099593;28;20047;-77
2023/09/07 08:31:45;;;;;;;12.85;8.02;;;;;;;;;;5099781;28;20087;-77
2023/09/07 08:34:11;;;;;;;14.43;8.25;;;22.20;99.90;;;;;;5111404;28;20387;-77
2023/09/07 08:36:37;;;;;;;12.23;7.90;;;22.10;99.90;;;;;;5101820;28;20100;-78
2023/09/07 08:39:09;;;;;;;12.60;8.40;;;22.00;99.90;;;;;;5095828;28;20044;-78
2023/09/07 08:41:46;;;;;;;9.82;7.93;;;22.30;99.90;;;;;;5095868;28;20046;-77
2023/09/07 08:44:16;;;;;;;12.25;8.02;;;22.20;99.90;;;;;;5096189;28;20040;-70
2023/09/07 08:46:43;;;;;;;15.02;7.88;;;22.10;99.90;;;;;;5098350;28;20073;-71
2023/09/07 08:49:11;;;;;;;11.90;8.02;;;20.70;99.90;;;;;;5113919;28;20040;-76
2023/09/07 08:51:37;;;;;;;10.75;7.10;;;22.20;99.90;;;;;;5117778;28;20052;-76
2023/09/07 08:54:07;;;;;;;13.32;6.63;;;21.70;99.50;;;;;;5099953;28;20040;-71
2023/09/07 08:56:34;;;;;;;12.80;6.82;;;21.90;99.50;;;;;;5113228;28;20071;-70
2023/09/07 08:59:00;;;;;;;15.73;7.90;;;21.70;99.90;;;;;;5112185;28;20178;-70
2023/09/07 09:01:26;;;;;;;12.23;7.68;;;;;;;;;;5111679;28;20040;-71
2023/09/07 09:03:52;;;;;;;12.70;7.40;;;21.70;99.90;;;;;;5094518;28;20036;-70
2023/09/07 09:06:19;;;;;;;13.07;7.43;;;23.70;99.40;;;;;;5094799;28;20047;-70
2023/09/07 09:09:07;;;;;;;13.40;7.40;;;22.70;99.90;;;;;;5095661;28;20040;-71
2023/09/07 09:11:33;;;;;;;10.85;6.75;;;22.50;99.90;;;;;;5077808;28;20408;-69
2023/09/07 09:13:58;;;;;;;8.95;6.85;;;22.70;99.80;;;;;;5077541;28;20078;-70
2023/09/07 09:16:25;;;;;;;9.20;6.60;;;22.20;99.90;;;;;;5077366;28;20036;-71
2023/09/07 09:18:55;;;;;;;14.48;6.80;;;22.90;99.90;;;;;;5094640;28;20044;-70
2023/09/07 09:21:25;;;;;;;8.43;5.85;;;22.70;98.10;;;;;;5094116;28;20086;-71
2023/09/07 09:23:57;;;;;;;9.98;6.13;;;22.50;99.90;;;;;;5094170;28;20442;-77
2023/09/07 09:26:23;;;;;;;12.50;6.55;;;;;;;;;;5077371;28;20032;-77
2023/09/07 09:28:52;;;;;;;11.93;5.68;;;23.50;99.90;;;;;;5094812;28;20096;-77
2023/09/07 09:31:18;;;;;;;8.43;6.07;;;23.10;99.90;;;;;;5094269;28;20040;-78
2023/09/07 09:33:48;;;;;;;10.45;6.20;;;23.00;99.90;;;;;;5107516;28;20051;-77
2023/09/07 09:36:15;;;;;;;13.38;6.47;;;;;;;;;;5097374;28;20515;-78
2023/09/07 09:38:52;;;;;;;9.95;6.05;;;23.20;96.50;;;;;;5097843;28;20168;-77
2023/09/07 09:41:20;;;;;;;9.70;5.63;;;24.10;99.10;;;;;;5097505;28;20050;-77
2023/09/07 09:43:51;;;;;;;11.05;5.32;;;24.20;99.80;;;;;;5097125;28;20043;-76
2023/09/07 09:46:17;;;;;;;11.63;5.40;;;24.00;97.80;;;;;;5097543;28;20054;-77
2023/09/07 09:48:44;;;;;;;8.73;5.55;;;24.30;99.40;;;;;;5097411;28;20036;-76
2023/09/07 09:51:11;;;;;;;8.32;5.85;;;23.90;97.90;;;;;;5097383;28;20031;-77
2023/09/07 09:53:37;;;;;;;11.05;5.80;;;23.90;98.80;;;;;;5080580;28;20032;-77
2023/09/07 09:56:03;;;;;;;8.98;5.60;;;24.30;98.70;;;;;;5096957;28;20491;-77
2023/09/07 09:58:29;;;;;;;10.13;5.65;;;;;;;;;;5096900;28;20045;-77
2023/09/07 10:00:57;;;;;;;9.43;5.80;;;24.60;98.50;;;;;;5080023;28;20041;-70
2023/09/07 10:03:32;;;;;;;11.65;5.43;;;24.30;93.60;;;;;;5114817;28;20147;-70
2023/09/07 10:06:24;;;;;;;10.20;5.43;;;24.20;98.10;;;;;;5096920;28;20131;-70
2023/09/07 10:09:03;;;;;;;7.33;5.43;;;24.90;98.30;;;;;;5096729;28;20039;-70
2023/09/07 10:11:38;;;;;;;10.02;5.40;;;24.40;93.40;;;;;;5096746;28;20285;-71
2023/09/07 10:14:05;;;;;;;9.55;5.35;;;24.80;94.30;;;;;;5079453;28;20050;-70
2023/09/07 10:16:52;;;;;;;9.05;5.68;;;24.30;97.50;;;;;;5079392;28;20331;-70
2023/09/07 10:19:20;;;;;;;11.25;5.13;;;24.80;93.90;;;;;;5096719;28;20043;-77
2023/09/07 10:21:46;;;;;;;8.07;4.88;;;25.00;97.50;;;;;;5079634;28;20088;-76
2023/09/07 10:24:25;;;;;;;6.97;5.20;;;25.20;97.20;;;;;;5096864;28;20090;-77
2023/09/07 10:27:02;;;;;;;10.95;5.63;;;24.80;95.60;;;;;;5096556;28;20539;-70
2023/09/07 10:29:28;;;;;;;8.20;4.95;;;25.10;95.10;;;;;;5096434;28;20047;-70
2023/09/07 10:31:54;;;;;;;8.68;5.20;;;25.30;93.80;;;;;;5096417;28;20536;-70
2023/09/07 10:34:22;;;;;;;7.88;5.07;;;25.00;92.30;;;;;;5062505;28;20130;-70
2023/09/07 10:36:51;;;;;;;7.13;4.53;;;;;;;;;;5079196;28;20043;-70
2023/09/07 10:39:16;;;;;;;7.35;5.18;;;25.50;95.90;;;;;;5079368;28;20093;-70
2023/09/07 10:41:43;;;;;;;8.52;4.40;;;25.70;95.90;;;;;;5096101;28;20044;-70
2023/09/07 10:44:13;;;;;;;10.15;4.88;;;25.60;95.70;;;;;;5096050;28;20071;-70
2023/09/07 10:46:40;;;;;;;7.13;4.85;;;25.20;95.70;;;;;;5096345;28;20040;-70
2023/09/07 10:49:11;;;;;;;8.57;4.80;;;25.90;94.90;;;;;;5096304;28;20035;-70
2023/09/07 10:51:44;;;;;;;11.98;5.05;;;25.30;95.20;;;;;;5096098;28;20047;-70
2023/09/07 10:54:23;;;;;;;7.43;4.70;;;25.30;94.90;;;;;;5096165;28;20409;-70
2023/09/07 10:56:50;;;;;;;9.55;4.68;;;26.10;95.00;;;;;;5095917;28;20499;-70
2023/09/07 10:59:16;;;;;;;6.90;4.80;;;26.50;93.00;;;;;;5096115;28;20039;-70
2023/09/07 11:01:44;;;;;;;8.68;4.35;;;25.90;94.70;;;;;;5095545;28;20421;-70
2023/09/07 11:04:13;;;;;;;5.30;4.32;;;26.60;94.60;;;;;;5079129;28;20043;-70
2023/09/07 11:06:41;;;;;;;7.88;4.43;;;26.70;94.60;;;;;;5095621;28;20489;-70
2023/09/07 11:09:10;;;;;;;10.68;4.90;;;26.40;94.30;;;;;;5078751;28;20495;-70
2023/09/07 11:11:36;;;;;;;7.78;4.72;;;26.60;94.10;;;;;;5095783;28;20039;-69
2023/09/07 11:14:04;;;;;;;5.60;4.35;;;27.00;94.10;;;;;;5095871;28;20340;-78
2023/09/07 11:16:32;;;;;;;8.82;4.82;;;26.50;93.60;;;;;;5095819;28;20047;-77
2023/09/07 11:19:04;;;;;;;8.15;4.45;;;26.10;93.50;;;;;;5095826;28;20384;-77
2023/09/07 11:21:31;;;;;;;;;;;26.70;90.70;;;;;;5096147;28;20499;-77
2023/09/07 11:23:57;;;;;;;8.50;5.07;;;27.00;94.00;;;;;;5078734;28;19927;-77
2023/09/07 11:26:23;;;;;;;9.98;4.80;;;27.20;93.70;;;;;;5095237;28;20054;-76
2023/09/07 11:28:49;;;;;;;7.43;4.70;;;27.30;93.50;;;;;;5095393;28;20035;-76
2023/09/07 11:31:19;;;;;;;8.68;4.50;;;26.70;92.90;;;;;;5095754;28;20133;-77
2023/09/07 11:33:47;;;;;;;9.63;4.28;;;27.20;88.90;;;;;;5095303;28;20083;-70
2023/09/07 11:36:12;;;;;;;6.85;4.72;;;27.50;93.10;;;;;;5095382;28;20040;-70
2023/09/07 11:38:42;;;;;;;11.90;4.60;;;27.60;93.00;;;;;;5095369;28;20118;-70
2023/09/07 11:41:08;;;;;;;9.02;4.35;;;;;;;;;;5095269;28;20047;-70
2023/09/07 11:43:34;;;;;;;8.82;4.53;;;27.10;92.60;;;;;;5078494;28;20048;-70
2023/09/07 11:46:01;;;;;;;6.25;4.70;;;27.30;92.30;;;;;;5095223;28;20108;-70
2023/09/07 11:48:28;;;;;;;7.40;4.45;;;;;;;;;;5095209;28;20044;-77
2023/09/07 11:50:54;;;;;;;6.70;4.60;;;27.60;92.00;;;;;;5095181;28;20511;-77
2023/09/07 11:53:19;;;;;;;7.38;4.50;;;27.70;91.20;;;;;;5078569;28;20051;-77
2023/09/07 11:55:45;;;;;;;8.60;4.75;;;27.30;91.30;;;;;;5078648;28;20040;-77
2023/09/07 11:58:14;;;;;;;7.25;4.60;;;28.10;91.70;;;;;;5113454;28;20047;-77
2023/09/07 12:00:41;;;;;;;11.50;4.53;;;27.80;91.30;;;;;;5078104;28;20543;-77
2023/09/07 12:03:07;;;;;;;8.68;4.70;;;28.10;91.30;;;;;;5094925;28;20059;-77
2023/09/07 12:05:33;;;;;;;5.05;4.45;;;27.90;90.00;;;;;;5095116;28;20040;-77
2023/09/07 12:07:58;;;;;;;8.98;4.40;;;28.30;86.40;;;;;;5113221;28;20113;-77
2023/09/07 12:10:24;;;;;;;7.85;4.43;;;27.60;87.40;;;;;;5061456;28;20036;-77
2023/09/07 12:12:50;;;;;;;8.02;4.50;;;28.20;89.60;;;;;;5078051;28;20075;-78
2023/09/07 12:15:15;;;;;;;10.18;4.53;;;28.40;86.10;;;;;;5113500;28;20051;-77
2023/09/07 12:17:41;;;;;;;7.22;4.22;;;28.60;89.70;;;;;;5094906;28;20460;-77
2023/09/07 12:20:12;;;;;;;5.45;4.20;;;;;;;;;;5094893;28;20070;-77
2023/09/07 12:22:38;;;;;;;8.45;4.03;;;28.60;89.40;;;;;;5095056;28;20043;-77
2023/09/07 12:25:10;;;;;;;8.35;4.40;;;28.80;88.90;;;;;;5078102;28;20548;-70
2023/09/07 12:27:36;;;;;;;7.05;4.53;;;28.50;89.20;;;;;;5094711;28;20118;-70
2023/09/07 12:30:06;;;;;;;6.03;4.50;;;28.80;88.50;;;;;;5095057;28;20039;-70
2023/09/07 12:32:32;;;;;;;6.90;4.38;;;28.50;84.60;;;;;;5095057;28;20047;-71
2023/09/07 12:34:59;;;;;;;7.43;4.57;;;28.40;87.90;;;;;;5091279;28;20498;-69
2023/09/07 12:37:24;;;;;;;5.82;4.40;;;28.40;88.00;;;;;;5091517;28;20115;-70
2023/09/07 12:39:51;;;;;;;9.45;4.68;;;28.20;87.80;;;;;;5094694;28;20127;-69
2023/09/07 12:42:17;;;;;;;7.38;4.03;;;28.90;81.70;;;;;;5095343;28;20043;-70
2023/09/07 12:44:44;;;;;;;8.75;5.38;;;29.00;88.00;;;;;;5096069;28;20048;-70
2023/09/07 12:47:09;;;;;;;15.48;4.40;;;29.10;88.00;;;;;;5081725;28;20044;-70
2023/09/07 12:49:35;;;;;;;8.15;4.78;;;29.30;85.40;;;;;;5112513;28;20051;-70
2023/09/07 12:52:08;;;;;;;9.68;4.75;;;;;;;;;;5095794;28;20050;-71
2023/09/07 12:54:35;;;;;;;8.68;4.75;;;29.20;79.30;;;;;;5111698;28;20052;-70
2023/09/07 12:57:01;;;;;;;8.60;4.38;;;29.10;79.90;;;;;;5094266;28;20039;-71
2023/09/07 12:59:27;;;;;;;7.70;4.60;;;29.10;85.30;;;;;;5111944;28;20040;-70
2023/09/07 13:01:55;;;;;;;6.43;4.30;;;29.20;85.40;;;;;;5111618;28;20110;-71
2023/09/07 13:04:21;;;;;;;7.22;4.30;;;;;;;;;;5099093;28;20096;-71
2023/09/07 13:06:47;;;;;;;7.75;4.30;;;;;;;;;;5097486;28;20036;-77